Time;durP1;ratioP1;P1;durP2;ratioP2;P2;SDS_P1;SDS_P2;PMS_P1;PMS_P2;Temp;Humidity;BMP_temperature;BMP_pressure;BME280_temperature;BME280_humidity;BME280_pressure;Samples;Min_cycle;Max_cycle;Signal;HPM_P1;HPM_P2
2022/03/02 00:05:04;;;;;;;294.10;103.60;;;;;;;-1.24;70.56;102207.08;5121649;56;1142964;-74
2022/03/02 00:10:11;;;;;;;299.47;102.83;;;;;;;-1.04;71.36;102197.05;5121262;56;1145147;-76
2022/03/02 00:15:17;;;;;;;328.17;110.13;;;;;;;-0.86;71.56;102194.40;5121226;56;1145343;-73
2022/03/02 00:20:23;;;;;;;254.40;93.00;;;;;;;-0.81;71.45;102193.52;5121410;56;1145102;-73
2022/03/02 00:25:29;;;;;;;192.30;72.42;;;;;;;-0.81;71.27;102184.87;5094648;56;1143198;-76
2022/03/02 00:30:35;;;;;;;175.67;66.50;;;;;;;-0.81;71.39;102177.08;5121328;56;1143221;-78
2022/03/02 00:35:41;;;;;;;160.15;60.12;;;;;;;-0.81;71.34;102182.27;5121691;56;1142924;-75
2022/03/02 00:40:47;;;;;;;161.30;61.30;;;;;;;-0.83;71.64;102173.62;5121167;56;1142947;-78
2022/03/02 00:45:53;;;;;;;147.03;58.97;;;;;;;-0.97;70.80;102173.67;5121671;56;1143046;-75
2022/03/02 00:50:59;;;;;;;166.73;65.17;;;;;;;-0.96;71.66;102170.21;5121287;56;1142937;-76
2022/03/02 00:56:05;;;;;;;181.17;59.07;;;;;;;-0.96;72.00;102153.77;5094309;56;1143257;-74
2022/03/02 01:01:11;;;;;;;141.90;50.77;;;;;;;-1.06;71.73;102143.83;5057040;56;1142835;-76
2022/03/02 01:06:18;;;;;;;136.40;49.57;;;;;;;-1.07;71.83;102140.36;5056969;57;1142725;-76
2022/03/02 01:11:25;;;;;;;114.35;39.45;;;;;;;-1.04;71.96;102132.14;5071429;57;1142823;-75
2022/03/02 01:16:32;;;;;;;108.87;41.93;;;;;;;-1.04;71.85;102134.73;5042222;57;1148713;-75
2022/03/02 01:21:38;;;;;;;139.18;47.45;;;;;;;-1.10;71.74;102131.75;5057217;57;1143000;-75
2022/03/02 01:26:46;;;;;;;123.47;43.37;;;;;;;-1.18;71.82;102123.11;5057136;57;1142869;-73
2022/03/02 01:31:52;;;;;;;118.67;42.37;;;;;;;-1.21;71.57;102130.91;5057856;57;1142788;-72
2022/03/02 01:36:58;;;;;;;100.20;37.87;;;;;;;-1.34;71.76;102122.73;5062255;57;1142762;-75
2022/03/02 01:42:05;;;;;;;105.77;39.87;;;;;;;-1.39;72.08;102115.41;5062324;57;1142840;-77
2022/03/02 01:47:12;;;;;;;107.90;38.27;;;;;;;-1.45;71.53;102124.06;5062245;57;1142859;-75
2022/03/02 01:52:18;;;;;;;121.47;44.53;;;;;;;-1.78;71.33;102122.39;5062272;57;1142893;-77
2022/03/02 01:57:24;;;;;;;131.30;48.63;;;;;;;-1.93;71.63;102120.69;5120527;56;1142731;-75
2022/03/02 02:02:30;;;;;;;144.23;51.77;;;;;;;-2.09;72.11;102120.25;5147237;56;1142819;-77
2022/03/02 02:07:36;;;;;;;160.77;55.70;;;;;;;-1.92;73.19;102113.34;5147145;56;1142859;-74
2022/03/02 02:12:42;;;;;;;194.07;63.90;;;;;;;-1.91;72.37;102110.31;5147190;56;1142864;-78
2022/03/02 02:17:47;;;;;;;191.70;68.23;;;;;;;-2.07;72.46;102098.22;5147153;56;1143111;-72
2022/03/02 02:22:53;;;;;;;161.93;58.93;;;;;;;-1.98;73.23;102087.41;5147196;56;1142811;-73
2022/03/02 02:27:59;;;;;;;130.63;46.53;;;;;;;-1.96;73.08;102086.11;5146864;56;1142984;-73
2022/03/02 02:33:06;;;;;;;122.47;47.97;;;;;;;-1.87;73.27;102074.45;5124757;56;1253183;-74
2022/03/02 02:38:12;;;;;;;111.92;47.50;;;;;;;-1.79;73.32;102069.66;5141749;56;1143053;-77
2022/03/02 02:43:23;;;;;;;110.57;43.27;;;;;;;-1.76;73.23;102064.91;5141782;56;1143092;-76
2022/03/02 02:48:28;;;;;;;98.03;40.77;;;;;;;-1.78;72.91;102063.61;5119777;56;1241140;-78
2022/03/02 02:53:34;;;;;;;107.07;41.67;;;;;;;-1.78;72.88;102062.75;5141633;56;1140939;-77
2022/03/02 02:58:40;;;;;;;105.47;40.05;;;;;;;-1.84;72.57;102050.68;5069645;56;1142881;-74
2022/03/02 03:03:46;;;;;;;99.37;38.97;;;;;;;-1.88;72.71;102045.06;5064380;57;1142753;-76
2022/03/02 03:08:52;;;;;;;90.33;36.63;;;;;;;-1.90;72.83;102042.03;5063216;57;1140820;-76
2022/03/02 03:13:59;;;;;;;88.07;34.80;;;;;;;-1.87;73.09;102028.64;5064443;57;1141129;-74
2022/03/02 03:19:05;;;;;;;78.13;32.93;;;;;;;-1.80;73.23;102030.77;5064481;56;1140853;-75
2022/03/02 03:24:10;;;;;;;76.90;32.60;;;;;;;-1.77;72.94;102019.95;5064607;56;1140886;-76
2022/03/02 03:29:16;;;;;;;77.57;31.40;;;;;;;-1.76;72.68;102015.63;5064426;56;1140842;-74
2022/03/02 03:34:22;;;;;;;73.17;29.00;;;;;;;-1.93;72.15;102016.11;5064480;56;1140876;-73
2022/03/02 03:39:28;;;;;;;71.53;28.60;;;;;;;-2.04;72.35;102013.98;5062529;56;1140763;-75
2022/03/02 03:44:35;;;;;;;77.42;27.77;;;;;;;-2.08;72.37;102010.95;5022470;56;1141062;-77
2022/03/02 03:49:41;;;;;;;73.90;29.15;;;;;;;-2.21;72.28;102003.21;5062225;57;1140938;-77
2022/03/02 03:54:47;;;;;;;78.43;27.40;;;;;;;-2.20;72.72;101992.41;5062388;57;1141005;-75
2022/03/02 03:59:53;;;;;;;73.17;27.67;;;;;;;-2.32;72.34;101987.25;5022851;57;1140782;-74
2022/03/02 04:05:00;;;;;;;84.53;28.43;;;;;;;-2.35;72.37;101991.14;5062038;57;1140929;-73
2022/03/02 04:10:09;;;;;;;81.90;28.03;;;;;;;-2.51;71.85;101998.05;5062042;56;1140675;-77
2022/03/02 04:15:15;;;;;;;99.03;33.90;;;;;;;-2.65;72.65;101990.29;5062072;56;1140908;-75
2022/03/02 04:20:21;;;;;;;89.17;30.13;;;;;;;-2.54;73.19;101982.51;5062633;57;1140778;-76
2022/03/02 04:25:27;;;;;;;85.13;30.27;;;;;;;-2.50;72.84;101983.81;5062955;55;1140928;-76
2022/03/02 04:30:33;;;;;;;82.13;26.67;;;;;;;-2.58;72.89;101984.66;5060888;57;1256120;-72
2022/03/02 04:35:39;;;;;;;97.67;27.17;;;;;;;-2.64;73.05;101989.42;5062751;56;1141012;-78
2022/03/02 04:40:46;;;;;;;109.53;29.77;;;;;;;-2.60;73.42;101986.41;5062655;57;1141173;-78
2022/03/02 04:45:52;;;;;;;89.27;28.40;;;;;;;-2.70;72.55;101984.66;5118702;56;1143163;-81
2022/03/02 04:50:57;;;;;;;82.93;25.50;;;;;;;-2.63;73.05;101991.59;5093782;56;1140965;-78
2022/03/02 04:56:03;;;;;;;85.10;25.57;;;;;;;-2.76;72.20;101973.90;5084378;56;1141122;-83
2022/03/02 05:01:08;;;;;;;75.70;26.27;;;;;;;-2.72;73.09;101969.55;5123838;56;1140932;-81
2022/03/02 05:06:14;;;;;;;98.27;35.60;;;;;;;-2.75;72.38;101975.59;5147067;56;1140931;-77
2022/03/02 05:11:19;;;;;;;101.55;38.00;;;;;;;-3.03;72.16;101981.61;5146771;56;1140832;-76
2022/03/02 05:16:25;;;;;;;107.07;38.27;;;;;;;-3.19;72.59;101978.13;5146869;55;1142998;-76
2022/03/02 05:21:30;;;;;;;119.02;36.28;;;;;;;-3.14;73.39;101973.84;5147206;56;1142858;-79
2022/03/02 05:26:36;;;;;;;107.17;37.83;;;;;;;-3.11;73.57;101967.38;5146914;56;1149008;-81
2022/03/02 05:31:42;;;;;;;140.67;47.80;;;;;;;-3.09;73.62;101959.63;5146940;56;1142926;-79
2022/03/02 05:36:48;;;;;;;151.43;57.77;;;;;;;-3.05;73.66;101969.09;5142512;56;1143144;-77
2022/03/02 05:41:55;;;;;;;140.57;48.07;;;;;;;-3.06;73.69;101966.11;5062065;56;1142926;-80
2022/03/02 05:47:01;;;;;;;148.30;47.57;;;;;;;-2.96;73.92;101953.59;5062008;56;1142828;-75
2022/03/02 05:52:08;;;;;;;154.20;47.93;;;;;;;-2.86;74.11;101960.49;5061943;57;1142999;-76
2022/03/02 05:57:14;;;;;;;200.00;81.37;;;;;;;-2.88;73.59;101952.72;5062107;56;1142849;-81
2022/03/02 06:02:20;;;;;;;199.47;74.13;;;;;;;-2.90;73.72;101944.09;5061636;57;1143128;-77
2022/03/02 06:07:26;;;;;;;128.90;51.07;;;;;;;-2.95;73.71;101937.20;5062351;56;1142793;-80
2022/03/02 06:12:32;;;;;;;147.83;69.90;;;;;;;-2.97;74.44;101947.98;5042179;57;1142965;-77
2022/03/02 06:17:38;;;;;;;375.68;114.80;;;;;;;-2.97;74.32;101954.45;5062123;56;1142960;-77
2022/03/02 06:22:45;;;;;;;334.27;102.57;;;;;;;-3.05;74.21;101958.74;5061851;57;1144837;-78
2022/03/02 06:27:51;;;;;;;228.87;84.60;;;;;;;-3.20;74.24;101955.70;5061531;57;1144848;-79
2022/03/02 06:32:58;;;;;;;220.30;83.50;;;;;;;-3.22;75.18;101954.44;5062046;57;1142900;-76
2022/03/02 06:38:04;;;;;;;203.80;78.90;;;;;;;-3.16;75.71;101951.41;5061819;57;1143006;-79
2022/03/02 06:43:18;;;;;;;223.00;91.47;;;;;;;-3.11;76.22;101957.46;5062007;56;1142929;-80
2022/03/02 06:48:36;;;;;;;255.60;95.57;;;;;;;-3.02;76.75;101957.03;5062456;56;1142781;-77
2022/03/02 06:53:45;;;;;;;249.20;91.87;;;;;;;-2.88;77.36;101959.63;5062495;56;1142777;-81
2022/03/02 06:58:53;;;;;;;233.50;85.00;;;;;;;-2.41;79.82;101944.50;5061918;56;1142859;-76
2022/03/02 07:04:01;;;;;;;247.27;93.00;;;;;;;-2.00;78.60;101947.88;5081946;57;1142816;-77
2022/03/02 07:09:09;;;;;;;327.48;120.33;;;;;;;-1.80;78.69;101951.67;5065680;56;1143342;-81
2022/03/02 07:14:16;;;;;;;261.98;93.62;;;;;;;-1.20;80.44;101945.73;5084980;56;1145311;-76
2022/03/02 07:19:22;;;;;;;293.90;127.07;;;;;;;-0.67;80.19;101937.99;5081903;56;1142892;-81
2022/03/02 07:24:33;;;;;;;368.60;165.43;;;;;;;-0.22;80.12;101925.85;5082438;56;1145034;-74
2022/03/02 07:29:40;;;;;;;227.70;94.27;;;;;;;0.23;79.88;101920.99;5141094;56;1144998;-82
2022/03/02 07:34:47;;;;;;;244.70;97.73;;;;;;;0.53;79.11;101921.89;5070088;56;1140849;-82
2022/03/02 07:39:53;;;;;;;195.20;80.13;;;;;;;0.88;79.03;101914.02;5062055;57;1141001;-80
2022/03/02 07:44:59;;;;;;;168.87;71.63;;;;;;;1.23;79.00;101913.42;5059216;57;1141378;-81
2022/03/02 07:50:06;;;;;;;157.43;65.20;;;;;;;1.67;79.21;101911.36;5062613;56;1140797;-76
2022/03/02 07:55:11;;;;;;;240.63;91.43;;;;;;;1.93;76.51;101914.33;5099415;56;1141095;-76
2022/03/02 08:00:17;;;;;;;267.30;109.50;;;;;;;1.64;74.57;101903.59;5088113;56;1140915;-78
2022/03/02 08:05:24;;;;;;;289.40;107.63;;;;;;;1.47;75.08;101909.11;5141804;56;1142915;-78
2022/03/02 08:10:29;;;;;;;230.07;89.50;;;;;;;1.64;76.33;101903.59;5079752;56;1143001;-85
2022/03/02 08:15:35;;;;;;;236.80;91.30;;;;;;;1.74;76.11;101901.21;5057085;57;1140831;-79
2022/03/02 08:20:46;;;;;;;227.13;88.40;;;;;;;1.71;75.83;101893.00;5057371;57;1140867;-81
2022/03/02 08:25:56;;;;;;;262.30;95.67;;;;;;;1.79;75.96;101889.40;5026197;57;1141033;-74
2022/03/02 08:31:02;;;;;;;194.60;73.43;;;;;;;1.91;75.17;101885.23;5056896;57;1141035;-79
2022/03/02 08:36:10;;;;;;;151.07;60.77;;;;;;;2.01;75.85;101882.40;5056713;57;1140922;-76
2022/03/02 08:41:18;;;;;;;147.60;55.20;;;;;;;2.20;76.37;101878.97;5117391;56;1140942;-82
2022/03/02 08:46:25;;;;;;;110.33;42.63;;;;;;;2.39;75.72;101875.52;5079511;56;1140888;-79
2022/03/02 08:51:32;;;;;;;68.77;26.70;;;;;;;2.52;74.72;101869.57;5085563;56;1140833;-77
2022/03/02 08:56:40;;;;;;;146.00;63.70;;;;;;;2.70;73.41;101868.70;5102928;56;1148259;-75
2022/03/02 09:01:52;;;;;;;76.30;31.33;;;;;;;2.92;73.19;101859.89;5062669;56;1141017;-76
2022/03/02 09:06:59;;;;;;;58.87;23.23;;;;;;;3.20;72.55;101862.69;5062778;56;1138971;-75
2022/03/02 09:12:05;;;;;;;72.00;28.80;;;;;;;3.41;70.68;101859.50;5063146;56;1138722;-78
2022/03/02 09:17:12;;;;;;;71.00;27.90;;;;;;;3.58;70.55;101852.95;5062812;56;1138672;-80
2022/03/02 09:22:19;;;;;;;32.93;15.20;;;;;;;3.68;70.57;101852.65;5063910;56;1138972;-78
2022/03/02 09:27:27;;;;;;;33.73;16.00;;;;;;;4.06;70.10;101861.19;5062518;56;1138961;-76
2022/03/02 09:32:34;;;;;;;35.77;15.80;;;;;;;4.19;67.85;101858.61;5062481;57;1138797;-80
2022/03/02 09:37:42;;;;;;;33.57;16.20;;;;;;;4.29;66.12;101861.80;5062841;56;1145954;-77
2022/03/02 09:43:01;;;;;;;46.88;20.68;;;;;;;4.60;64.86;101865.19;5062824;56;1138968;-83
2022/03/02 09:48:08;;;;;;;69.20;21.50;;;;;;;4.86;65.24;101846.03;5060490;57;1138691;-80
2022/03/02 09:53:15;;;;;;;41.70;19.10;;;;;;;4.79;59.90;101845.81;5057154;56;1138690;-75
2022/03/02 09:58:23;;;;;;;35.20;15.33;;;;;;;4.63;60.47;101841.97;5057150;57;1138778;-78
2022/03/02 10:03:37;;;;;;;38.90;15.23;;;;;;;4.74;62.45;101844.64;5057029;56;1138676;-78
2022/03/02 10:08:52;;;;;;;38.63;16.77;;;;;;;4.97;58.06;101833.42;5057191;57;1138653;-75
2022/03/02 10:13:59;;;;;;;30.63;15.73;;;;;;;4.97;58.06;101833.42;5057190;56;1138557;-79
2022/03/02 10:19:06;;;;;;;26.20;13.37;;;;;;;4.91;57.55;101824.44;5079566;56;1138641;-76
2022/03/02 10:24:14;;;;;;;31.33;15.17;;;;;;;4.83;56.85;101822.54;5067096;56;1138781;-71
2022/03/02 10:29:34;;;;;;;34.87;15.50;;;;;;;4.77;57.55;101820.96;5121493;56;1138778;-74
2022/03/02 10:34:54;;;;;;;29.25;14.33;;;;;;;5.07;57.90;101809.05;5121607;56;1138898;-77
2022/03/02 10:40:20;;;;;;;33.83;15.83;;;;;;;5.42;57.56;101806.06;5077270;56;1138747;-81
2022/03/02 10:45:29;;;;;;;29.87;14.97;;;;;;;5.39;56.15;101800.06;5054370;57;1138911;-78
2022/03/02 10:50:38;;;;;;;28.30;13.22;;;;;;;5.41;56.81;101798.24;5072081;56;1139034;-77
2022/03/02 10:55:46;;;;;;;40.23;16.17;;;;;;;5.51;56.20;101780.79;5079605;56;1138961;-79
2022/03/02 11:00:52;;;;;;;34.83;15.83;;;;;;;5.52;56.03;101790.83;5151051;56;1138943;-77
2022/03/02 11:06:02;;;;;;;33.55;16.07;;;;;;;5.48;55.06;101793.19;5150448;56;1139016;-75
2022/03/02 11:11:11;;;;;;;31.80;12.20;;;;;;;5.53;55.18;101786.84;5150509;56;1138859;-79
2022/03/02 11:16:21;;;;;;;28.87;14.80;;;;;;;5.65;55.38;101784.25;5085738;56;1138689;-79
2022/03/02 11:21:35;;;;;;;36.00;18.10;;;;;;;5.74;56.24;101775.16;5065522;56;1138915;-79
2022/03/02 11:26:42;;;;;;;26.57;14.58;;;;;;;5.95;56.15;101775.70;5082445;56;1138754;-81
2022/03/02 11:31:52;;;;;;;27.65;15.28;;;;;;;6.13;54.90;101757.04;5066357;57;1138869;-76
2022/03/02 11:37:05;;;;;;;56.58;25.88;;;;;;;6.18;53.26;101748.08;5097861;56;1138815;-73
2022/03/02 11:42:12;;;;;;;59.43;30.73;;;;;;;6.33;51.03;101742.66;5066307;57;1138999;-71
2022/03/02 11:47:20;;;;;;;24.87;13.47;;;;;;;6.57;51.55;101735.56;5127932;56;1138712;-76
2022/03/02 11:52:30;;;;;;;23.03;11.70;;;;;;;6.75;46.93;101722.08;5036236;56;1138903;-72
2022/03/02 11:57:47;;;;;;;23.63;11.43;;;;;;;6.87;49.24;101720.27;5041883;56;1138945;-74
2022/03/02 12:03:01;;;;;;;32.33;13.70;;;;;;;7.02;48.01;101713.89;5016330;56;1138898;-77
2022/03/02 12:08:10;;;;;;;25.90;12.23;;;;;;;7.10;48.43;101712.67;5020334;56;1138844;-75
2022/03/02 12:13:20;;;;;;;24.55;13.60;;;;;;;7.18;48.42;101711.41;5006517;57;1138785;-73
2022/03/02 12:18:26;;;;;;;24.67;13.00;;;;;;;7.31;47.49;101699.89;5062180;57;1138577;-81
2022/03/02 12:23:35;;;;;;;24.47;13.10;;;;;;;7.42;46.02;101688.41;5033406;57;1138874;-75
2022/03/02 12:28:41;;;;;;;24.20;11.70;;;;;;;7.47;46.73;101685.57;5063601;57;1138802;-77
2022/03/02 12:33:46;;;;;;;20.23;11.43;;;;;;;7.62;47.55;101684.86;5027981;56;1138747;-78
2022/03/02 12:38:53;;;;;;;20.40;11.53;;;;;;;7.77;47.67;101678.88;5014482;57;1138748;-80
2022/03/02 12:44:00;;;;;;;22.37;12.50;;;;;;;7.89;47.48;101678.28;5101625;56;1138702;-73
2022/03/02 12:49:07;;;;;;;23.03;13.30;;;;;;;8.02;46.81;101663.59;5072542;56;1138603;-77
2022/03/02 12:54:14;;;;;;;24.90;10.83;;;;;;;8.07;44.92;101655.47;5118707;56;1138706;-75
2022/03/02 12:59:20;;;;;;;22.70;10.53;;;;;;;8.17;47.07;101659.81;5075672;56;1138694;-72
2022/03/02 13:04:53;;;;;;;27.13;11.80;;;;;;;8.30;45.76;101652.53;5093152;56;1138566;-78
2022/03/02 13:10:02;;;;;;;25.33;12.33;;;;;;;8.32;44.48;101650.71;5101274;56;1138839;-78
2022/03/02 13:15:35;;;;;;;68.90;25.40;;;;;;;8.40;45.39;101641.11;5062097;57;1138882;-77
2022/03/02 13:20:50;;;;;;;29.43;17.67;;;;;;;8.56;46.12;101628.83;5055589;57;1138785;-76
2022/03/02 13:26:03;;;;;;;28.30;16.23;;;;;;;8.55;46.40;101623.20;5083331;56;1138697;-74
2022/03/02 13:31:18;;;;;;;28.92;15.72;;;;;;;8.69;46.43;101615.42;5081796;56;1138828;-76
2022/03/02 13:36:47;;;;;;;36.30;17.97;;;;;;;8.86;47.32;101616.32;5073670;55;1138856;-74
2022/03/02 13:41:59;;;;;;;34.95;17.05;;;;;;;8.85;45.15;101610.19;5070757;56;1138835;-76
2022/03/02 13:47:23;;;;;;;38.17;17.37;;;;;;;8.88;46.91;101598.59;5102555;56;1138772;-80
2022/03/02 13:52:33;;;;;;;34.83;17.30;;;;;;;9.00;47.65;101598.81;5128580;56;1138716;-74
2022/03/02 13:57:41;;;;;;;29.87;16.35;;;;;;;9.09;47.23;101582.47;4997801;56;1139085;-74
2022/03/02 14:02:52;;;;;;;23.90;14.13;;;;;;;9.04;44.85;101583.18;5018859;56;1138875;-80
2022/03/02 14:08:07;;;;;;;26.83;14.73;;;;;;;8.84;43.57;101573.34;4982054;57;1138878;-79
2022/03/02 14:13:13;;;;;;;34.23;16.73;;;;;;;8.67;45.66;101559.27;5025831;57;1138743;-73
2022/03/02 14:18:19;;;;;;;29.57;15.60;;;;;;;8.83;46.61;101557.12;5086222;56;1139007;-74
2022/03/02 14:23:26;;;;;;;30.67;16.53;;;;;;;9.01;47.05;101556.95;5040664;56;1138901;-75
2022/03/02 14:28:36;;;;;;;34.13;17.80;;;;;;;9.05;46.44;101557.17;5065238;56;1138788;-75
2022/03/02 14:33:42;;;;;;;30.77;17.67;;;;;;;9.01;45.92;101550.86;5065167;56;1139028;-74
2022/03/02 14:38:48;;;;;;;31.50;15.40;;;;;;;9.08;46.27;101546.93;5065209;56;1139154;-74
2022/03/02 14:43:57;;;;;;;33.00;14.25;;;;;;;8.89;43.50;101547.54;5065283;56;1138586;-74
2022/03/02 14:49:05;;;;;;;26.47;14.60;;;;;;;8.72;43.64;101544.48;5121693;56;1139000;-73
2022/03/02 14:54:14;;;;;;;30.70;15.37;;;;;;;8.72;43.59;101543.17;5102062;56;1138624;-73
2022/03/02 14:59:21;;;;;;;26.50;14.70;;;;;;;8.60;42.19;101538.55;5094135;56;1138834;-74
2022/03/02 15:04:28;;;;;;;27.77;14.93;;;;;;;8.71;43.98;101528.27;5137245;56;1138734;-73
2022/03/02 15:09:34;;;;;;;26.73;13.83;;;;;;;8.85;43.55;101520.50;5136820;56;1138707;-73
2022/03/02 15:14:59;;;;;;;27.62;15.10;;;;;;;8.77;43.04;101509.03;5154971;56;1138795;-75
2022/03/02 15:20:07;;;;;;;22.22;12.33;;;;;;;8.53;42.62;101509.04;5136735;56;1171936;-74
2022/03/02 15:25:14;;;;;;;22.10;12.80;;;;;;;8.31;41.55;101493.47;5137239;56;1138793;-74
2022/03/02 15:30:20;;;;;;;29.43;13.13;;;;;;;8.71;42.85;101490.89;5137309;55;1138820;-73
2022/03/02 15:35:26;;;;;;;56.80;29.90;;;;;;;9.34;42.64;101485.61;5137209;54;1138713;-73
2022/03/02 15:40:38;;;;;;;26.57;14.87;;;;;;;9.02;42.19;101471.58;5137260;55;1138701;-73
2022/03/02 15:45:47;;;;;;;31.77;16.43;;;;;;;8.44;43.27;101467.33;5137495;56;1138820;-74
2022/03/02 15:50:56;;;;;;;45.58;19.27;;;;;;;8.04;44.00;101468.56;5137148;56;1138892;-73
2022/03/02 15:56:09;;;;;;;117.82;62.88;;;;;;;7.81;45.07;101467.55;5107151;56;1138917;-74
2022/03/02 16:01:29;;;;;;;;;;;;;;;7.91;46.04;101463.55;5066756;56;1140977;-74
2022/03/02 16:06:37;;;;;;;46.03;18.13;;;;;;;8.36;45.13;101449.30;5080271;56;972077;-73
2022/03/02 16:11:49;;;;;;;86.43;20.43;;;;;;;8.31;44.73;101447.34;5044541;56;1136577;-74
2022/03/02 16:16:56;;;;;;;61.30;23.73;;;;;;;7.88;45.05;101455.80;5064184;57;1138840;-73
2022/03/02 16:22:04;;;;;;;57.57;24.77;;;;;;;7.53;45.91;101462.84;5063968;56;1138780;-73
2022/03/02 16:27:23;;;;;;;85.70;24.27;;;;;;;7.29;46.70;101451.75;5063910;56;1138674;-73
2022/03/02 16:32:28;;;;;;;76.63;26.40;;;;;;;7.08;47.27;101456.73;5063821;56;1138779;-73
2022/03/02 16:37:34;;;;;;;83.37;33.03;;;;;;;6.92;48.13;101448.72;5063936;56;1138630;-73
2022/03/02 16:42:40;;;;;;;83.43;30.57;;;;;;;6.85;48.49;101442.92;5063913;56;1138818;-74
2022/03/02 16:47:49;;;;;;;137.67;41.33;;;;;;;6.84;48.90;101422.81;5063995;57;1138765;-73
2022/03/02 16:52:57;;;;;;;272.45;85.60;;;;;;;6.80;49.38;101421.70;5064136;57;1141029;-74
2022/03/02 16:58:03;;;;;;;376.17;104.77;;;;;;;6.58;49.51;101429.73;5134203;56;1140984;-73
2022/03/02 17:03:20;;;;;;;352.17;109.33;;;;;;;6.38;50.35;101429.36;5128067;56;1142818;-73
2022/03/02 17:08:21;;;;;;;349.03;99.87;;;;;;;6.14;50.66;101438.32;5120708;56;1143295;-73
2022/03/02 17:13:31;;;;;;;303.07;85.20;;;;;;;5.86;51.41;101435.57;5110779;56;1140956;-73
2022/03/02 17:18:34;;;;;;;297.57;84.70;;;;;;;5.77;51.74;101437.75;5008179;57;1140951;-74
2022/03/02 17:23:40;;;;;;;334.47;92.60;;;;;;;5.68;52.13;101434.19;5109243;56;1141244;-73
2022/03/02 17:28:46;;;;;;;289.17;83.57;;;;;;;5.52;52.40;101430.05;5105011;56;1140912;-73
2022/03/02 17:33:51;;;;;;;304.87;83.58;;;;;;;5.37;52.89;101436.79;5072512;56;1140875;-74
2022/03/02 17:38:59;;;;;;;236.47;78.17;;;;;;;5.34;53.12;101438.25;5086018;56;1141041;-73
2022/03/02 17:44:05;;;;;;;274.17;88.87;;;;;;;5.29;53.30;101436.27;5073413;56;1140898;-73
2022/03/02 17:49:11;;;;;;;289.90;91.73;;;;;;;5.02;53.04;101431.69;5087033;56;1140791;-74
2022/03/02 17:54:19;;;;;;;178.83;69.30;;;;;;;4.85;53.54;101429.73;5100485;56;1140955;-73
2022/03/02 17:59:25;;;;;;;173.47;62.23;;;;;;;4.58;53.64;101430.81;5102562;56;1140797;-73
2022/03/02 18:04:31;;;;;;;203.67;80.70;;;;;;;4.48;54.40;101424.20;5061869;56;1142071;-72
2022/03/02 18:09:38;;;;;;;200.47;71.93;;;;;;;4.49;54.91;101416.28;5061251;56;1140703;-70
2022/03/02 18:14:44;;;;;;;190.98;63.50;;;;;;;4.47;54.86;101415.94;5061754;56;1140842;-73
2022/03/02 18:19:50;;;;;;;71.33;31.37;;;;;;;4.42;54.89;101417.44;5049079;56;1150613;-73
2022/03/02 18:24:56;;;;;;;102.72;41.10;;;;;;;4.32;54.94;101412.59;5052236;56;1138646;-73
2022/03/02 18:30:01;;;;;;;171.45;58.35;;;;;;;4.25;55.21;101414.59;5055860;56;1140840;-70
2022/03/02 18:35:08;;;;;;;453.30;174.23;;;;;;;4.16;55.30;101408.38;5041495;56;1140749;-75
2022/03/02 18:40:14;;;;;;;387.70;125.67;;;;;;;4.00;55.34;101415.08;5050414;56;1142929;-70
2022/03/02 18:45:20;;;;;;;473.70;174.27;;;;;;;3.80;55.31;101413.19;5074614;56;1142779;-69
2022/03/02 18:50:27;;;;;;;661.07;248.30;;;;;;;3.56;56.00;101416.19;5051248;56;1142819;-72
2022/03/02 18:55:33;;;;;;;319.33;110.50;;;;;;;3.58;56.71;101406.98;5057804;56;1142717;-72
2022/03/02 19:00:38;;;;;;;177.82;65.83;;;;;;;3.47;56.65;101410.83;5058691;56;1142784;-72
2022/03/02 19:05:46;;;;;;;198.17;70.27;;;;;;;3.47;56.93;101404.30;5064023;56;1140937;-70
2022/03/02 19:10:51;;;;;;;161.53;59.07;;;;;;;3.49;57.14;101406.41;5050235;56;1150601;-70
2022/03/02 19:15:57;;;;;;;204.57;81.15;;;;;;;3.46;57.50;101396.50;5044620;56;1140800;-68
2022/03/02 19:21:04;;;;;;;160.48;66.30;;;;;;;3.36;57.39;101403.78;5041156;56;1140832;-71
2022/03/02 19:26:11;;;;;;;198.93;79.10;;;;;;;3.22;57.53;101401.23;5041512;56;1140706;-71
2022/03/02 19:31:19;;;;;;;168.20;65.53;;;;;;;3.10;57.77;101403.80;5037295;56;1140770;-70
2022/03/02 19:36:25;;;;;;;194.43;81.67;;;;;;;3.02;58.30;101401.45;5033884;56;1140769;-73
2022/03/02 19:41:31;;;;;;;197.17;72.80;;;;;;;2.90;58.47;101395.77;5044906;56;1140707;-75
2022/03/02 19:46:37;;;;;;;111.03;45.90;;;;;;;2.87;58.80;101394.10;5069109;56;1140980;-74
2022/03/02 19:51:43;;;;;;;170.53;64.90;;;;;;;2.89;58.98;101394.91;5047000;56;1140940;-71
2022/03/02 19:56:52;;;;;;;594.13;186.73;;;;;;;2.79;58.66;101394.78;5055986;56;1140841;-71
2022/03/02 20:02:05;;;;;;;594.65;194.30;;;;;;;2.54;58.64;101393.84;5053846;56;1143142;-74
2022/03/02 20:07:12;;;;;;;675.62;218.73;;;;;;;2.45;59.31;101396.26;5060749;56;1143121;-74
2022/03/02 20:12:17;;;;;;;493.15;140.55;;;;;;;2.43;59.78;101397.64;5100423;56;1142918;-74
2022/03/02 20:17:23;;;;;;;305.27;94.97;;;;;;;2.14;59.61;101391.57;5109127;56;1143231;-70
2022/03/02 20:22:29;;;;;;;124.23;46.57;;;;;;;2.17;60.76;101381.02;5105188;56;1140947;-73
2022/03/02 20:27:56;;;;;;;176.97;71.57;;;;;;;2.26;60.89;101379.02;5103989;56;1140774;-71
2022/03/02 20:33:03;;;;;;;690.98;230.32;;;;;;;2.30;60.59;101383.22;5090085;56;1140918;-71
2022/03/02 20:38:12;;;;;;;455.93;139.03;;;;;;;2.22;60.14;101377.84;5108408;56;1142929;-72
2022/03/02 20:43:20;;;;;;;252.32;96.55;;;;;;;1.96;60.28;101382.51;5108602;56;1143022;-71
2022/03/02 20:48:26;;;;;;;493.33;150.73;;;;;;;1.83;60.75;101371.57;5110220;56;1236386;-70
2022/03/02 20:53:32;;;;;;;248.00;99.90;;;;;;;1.74;61.27;101376.58;5104419;56;1143087;-71
2022/03/02 20:58:41;;;;;;;284.43;119.40;;;;;;;1.82;61.63;101384.20;5102288;56;1140796;-72
2022/03/02 21:03:46;;;;;;;266.53;101.37;;;;;;;1.91;61.92;101367.42;5092997;56;1143061;-70
2022/03/02 21:08:52;;;;;;;167.53;62.25;;;;;;;2.00;62.13;101371.92;5087340;56;1143100;-74
2022/03/02 21:13:58;;;;;;;154.20;54.27;;;;;;;2.04;62.03;101362.26;5080241;56;1141146;-73
2022/03/02 21:19:04;;;;;;;130.27;48.10;;;;;;;1.99;61.87;101353.70;5074941;56;1140769;-71
2022/03/02 21:24:09;;;;;;;99.20;38.87;;;;;;;1.92;61.90;101346.52;5069626;56;1141010;-73
2022/03/02 21:29:16;;;;;;;126.17;50.27;;;;;;;1.82;62.12;101352.91;5068967;56;1138890;-73
2022/03/02 21:34:22;;;;;;;108.43;43.20;;;;;;;1.78;62.38;101347.81;5071861;56;1140948;-73
2022/03/02 21:39:28;;;;;;;134.13;53.73;;;;;;;1.74;62.30;101341.38;5062693;56;1140777;-71
2022/03/02 21:44:35;;;;;;;119.53;50.37;;;;;;;1.68;62.63;101340.70;5056597;57;1140995;-74
2022/03/02 21:49:41;;;;;;;132.40;53.67;;;;;;;1.69;63.02;101337.17;5061228;56;1141017;-72
2022/03/02 21:54:47;;;;;;;128.37;54.57;;;;;;;1.67;63.19;101333.33;5088186;56;1141069;-70
2022/03/02 21:59:53;;;;;;;118.67;45.53;;;;;;;1.65;63.24;101337.73;5086849;56;1140837;-73
2022/03/02 22:04:59;;;;;;;130.75;51.83;;;;;;;1.66;63.29;101333.38;5089436;56;1140904;-74
2022/03/02 22:10:08;;;;;;;156.37;63.97;;;;;;;1.55;62.98;101338.00;5117340;56;1140986;-69
2022/03/02 22:15:14;;;;;;;122.43;51.83;;;;;;;1.48;63.30;101333.42;5141790;56;1141016;-70
2022/03/02 22:20:20;;;;;;;126.13;49.93;;;;;;;1.36;63.44;101332.01;5141687;56;1140851;-71
2022/03/02 22:25:27;;;;;;;150.53;54.03;;;;;;;1.28;63.57;101337.86;5141563;56;1140800;-71
2022/03/02 22:30:33;;;;;;;117.57;50.37;;;;;;;1.25;63.86;101338.37;5141807;56;1140670;-72
2022/03/02 22:35:41;;;;;;;123.43;50.47;;;;;;;1.21;64.21;101333.72;5144043;56;1140757;-73
2022/03/02 22:40:46;;;;;;;112.17;48.03;;;;;;;1.08;63.99;101324.92;5143150;56;1140686;-73
2022/03/02 22:45:52;;;;;;;138.57;53.70;;;;;;;0.99;64.19;101324.72;5150758;56;1145695;-75
2022/03/02 22:50:58;;;;;;;115.40;51.60;;;;;;;0.96;64.32;101322.19;5150516;56;1141005;-72